sensor_id;sensor_type;location;lat;lon;timestamp;P1;durP1;ratioP1;P2;durP2;ratioP2
17310;SDS011;8773;43.300;0.394;2023-02-13T00:01:18;19.20;;;16.87;;
17310;SDS011;8773;43.300;0.394;2023-02-13T00:03:46;22.03;;;17.40;;
17310;SDS011;8773;43.300;0.394;2023-02-13T00:06:14;18.77;;;16.77;;
17310;SDS011;8773;43.300;0.394;2023-02-13T00:08:43;19.50;;;15.63;;
17310;SDS011;8773;43.300;0.394;2023-02-13T00:11:11;17.47;;;15.07;;
17310;SDS011;8773;43.300;0.394;2023-02-13T00:13:40;15.23;;;13.43;;
17310;SDS011;8773;43.300;0.394;2023-02-13T00:16:08;16.90;;;14.13;;
17310;SDS011;8773;43.300;0.394;2023-02-13T00:18:37;14.87;;;12.90;;
17310;SDS011;8773;43.300;0.394;2023-02-13T00:21:06;16.93;;;14.00;;
17310;SDS011;8773;43.300;0.394;2023-02-13T00:23:36;14.87;;;13.07;;
17310;SDS011;8773;43.300;0.394;2023-02-13T00:26:10;14.73;;;13.23;;
17310;SDS011;8773;43.300;0.394;2023-02-13T00:28:40;15.40;;;13.63;;
17310;SDS011;8773;43.300;0.394;2023-02-13T00:31:09;15.30;;;13.63;;
17310;SDS011;8773;43.300;0.394;2023-02-13T00:33:39;16.43;;;14.03;;
17310;SDS011;8773;43.300;0.394;2023-02-13T00:36:11;16.30;;;14.50;;
17310;SDS011;8773;43.300;0.394;2023-02-13T00:38:40;15.67;;;13.27;;
17310;SDS011;8773;43.300;0.394;2023-02-13T00:41:11;15.57;;;12.70;;
17310;SDS011;8773;43.300;0.394;2023-02-13T00:43:39;14.77;;;13.03;;
17310;SDS011;8773;43.300;0.394;2023-02-13T00:46:10;14.90;;;12.83;;
17310;SDS011;8773;43.300;0.394;2023-02-13T00:48:38;13.57;;;12.27;;
17310;SDS011;8773;43.300;0.394;2023-02-13T00:51:07;16.13;;;12.73;;
17310;SDS011;8773;43.300;0.394;2023-02-13T00:53:36;13.50;;;12.17;;
17310;SDS011;8773;43.300;0.394;2023-02-13T00:56:04;13.77;;;12.37;;
17310;SDS011;8773;43.300;0.394;2023-02-13T00:58:35;13.37;;;12.07;;
17310;SDS011;8773;43.300;0.394;2023-02-13T01:01:03;13.20;;;11.77;;
17310;SDS011;8773;43.300;0.394;2023-02-13T01:03:34;14.57;;;13.07;;
17310;SDS011;8773;43.300;0.394;2023-02-13T01:06:02;15.57;;;13.03;;
17310;SDS011;8773;43.300;0.394;2023-02-13T01:08:31;15.10;;;12.70;;
17310;SDS011;8773;43.300;0.394;2023-02-13T01:11:00;14.50;;;12.67;;
17310;SDS011;8773;43.300;0.394;2023-02-13T01:13:28;13.50;;;11.87;;
17310;SDS011;8773;43.300;0.394;2023-02-13T01:15:57;12.67;;;11.37;;
17310;SDS011;8773;43.300;0.394;2023-02-13T01:18:26;12.47;;;11.27;;
17310;SDS011;8773;43.300;0.394;2023-02-13T01:20:54;12.50;;;11.17;;
17310;SDS011;8773;43.300;0.394;2023-02-13T01:23:24;12.83;;;11.53;;
17310;SDS011;8773;43.300;0.394;2023-02-13T01:25:53;12.50;;;11.20;;
17310;SDS011;8773;43.300;0.394;2023-02-13T01:28:21;12.13;;;10.73;;
17310;SDS011;8773;43.300;0.394;2023-02-13T01:30:51;11.37;;;10.20;;
17310;SDS011;8773;43.300;0.394;2023-02-13T01:33:21;15.50;;;11.47;;
17310;SDS011;8773;43.300;0.394;2023-02-13T01:35:50;13.33;;;11.90;;
17310;SDS011;8773;43.300;0.394;2023-02-13T01:38:19;12.53;;;11.23;;
17310;SDS011;8773;43.300;0.394;2023-02-13T01:40:47;13.00;;;11.70;;
17310;SDS011;8773;43.300;0.394;2023-02-13T01:43:18;12.63;;;11.43;;
17310;SDS011;8773;43.300;0.394;2023-02-13T01:45:49;12.17;;;10.87;;
17310;SDS011;8773;43.300;0.394;2023-02-13T01:48:23;11.50;;;10.40;;
17310;SDS011;8773;43.300;0.394;2023-02-13T01:50:57;11.37;;;10.17;;
17310;SDS011;8773;43.300;0.394;2023-02-13T01:53:29;12.83;;;11.07;;
17310;SDS011;8773;43.300;0.394;2023-02-13T01:56:01;11.33;;;10.17;;
17310;SDS011;8773;43.300;0.394;2023-02-13T01:58:35;12.20;;;10.63;;
17310;SDS011;8773;43.300;0.394;2023-02-13T02:01:06;12.13;;;10.60;;
17310;SDS011;8773;43.300;0.394;2023-02-13T02:03:38;12.00;;;10.77;;
17310;SDS011;8773;43.300;0.394;2023-02-13T02:06:11;13.10;;;11.70;;
17310;SDS011;8773;43.300;0.394;2023-02-13T02:08:43;11.83;;;10.73;;
17310;SDS011;8773;43.300;0.394;2023-02-13T02:11:21;11.97;;;10.77;;
17310;SDS011;8773;43.300;0.394;2023-02-13T02:13:54;12.53;;;11.23;;
17310;SDS011;8773;43.300;0.394;2023-02-13T02:16:24;12.70;;;11.40;;
17310;SDS011;8773;43.300;0.394;2023-02-13T02:18:54;12.13;;;10.67;;
17310;SDS011;8773;43.300;0.394;2023-02-13T02:21:35;12.00;;;10.90;;
17310;SDS011;8773;43.300;0.394;2023-02-13T02:30:46;10.57;;;9.67;;
17310;SDS011;8773;43.300;0.394;2023-02-13T02:33:32;11.33;;;10.30;;
17310;SDS011;8773;43.300;0.394;2023-02-13T02:36:16;12.13;;;10.47;;
17310;SDS011;8773;43.300;0.394;2023-02-13T02:38:57;10.90;;;9.73;;
17310;SDS011;8773;43.300;0.394;2023-02-13T02:41:32;10.57;;;9.60;;
17310;SDS011;8773;43.300;0.394;2023-02-13T02:44:14;10.10;;;9.20;;
17310;SDS011;8773;43.300;0.394;2023-02-13T02:46:53;10.07;;;9.17;;
17310;SDS011;8773;43.300;0.394;2023-02-13T02:49:49;9.27;;;8.47;;
17310;SDS011;8773;43.300;0.394;2023-02-13T02:52:30;9.73;;;8.83;;
17310;SDS011;8773;43.300;0.394;2023-02-13T02:55:08;10.73;;;9.63;;
17310;SDS011;8773;43.300;0.394;2023-02-13T02:57:42;10.80;;;9.70;;
17310;SDS011;8773;43.300;0.394;2023-02-13T03:00:33;10.50;;;9.60;;
17310;SDS011;8773;43.300;0.394;2023-02-13T03:03:24;10.17;;;9.17;;
17310;SDS011;8773;43.300;0.394;2023-02-13T03:06:14;9.87;;;9.00;;
17310;SDS011;8773;43.300;0.394;2023-02-13T03:08:50;9.47;;;8.47;;
17310;SDS011;8773;43.300;0.394;2023-02-13T03:11:38;9.23;;;8.40;;
17310;SDS011;8773;43.300;0.394;2023-02-13T03:14:27;9.50;;;8.53;;
17310;SDS011;8773;43.300;0.394;2023-02-13T03:16:55;10.13;;;8.70;;
17310;SDS011;8773;43.300;0.394;2023-02-13T03:19:54;9.97;;;8.97;;
17310;SDS011;8773;43.300;0.394;2023-02-13T03:22:49;10.17;;;9.23;;
17310;SDS011;8773;43.300;0.394;2023-02-13T03:25:35;9.53;;;8.73;;
17310;SDS011;8773;43.300;0.394;2023-02-13T03:28:11;9.20;;;8.23;;
17310;SDS011;8773;43.300;0.394;2023-02-13T03:31:05;9.50;;;8.63;;
17310;SDS011;8773;43.300;0.394;2023-02-13T03:33:43;9.43;;;8.27;;
17310;SDS011;8773;43.300;0.394;2023-02-13T03:36:26;8.23;;;7.53;;
17310;SDS011;8773;43.300;0.394;2023-02-13T03:39:20;9.47;;;8.60;;
17310;SDS011;8773;43.300;0.394;2023-02-13T03:41:57;9.37;;;8.23;;
17310;SDS011;8773;43.300;0.394;2023-02-13T03:44:32;8.77;;;7.97;;
17310;SDS011;8773;43.300;0.394;2023-02-13T03:47:05;8.77;;;7.97;;
17310;SDS011;8773;43.300;0.394;2023-02-13T03:49:36;9.50;;;8.60;;
17310;SDS011;8773;43.300;0.394;2023-02-13T03:52:26;8.00;;;7.40;;
17310;SDS011;8773;43.300;0.394;2023-02-13T03:55:01;8.27;;;7.57;;
17310;SDS011;8773;43.300;0.394;2023-02-13T03:57:51;8.70;;;8.00;;
17310;SDS011;8773;43.300;0.394;2023-02-13T04:00:42;8.80;;;8.00;;
17310;SDS011;8773;43.300;0.394;2023-02-13T04:03:15;8.53;;;7.77;;
17310;SDS011;8773;43.300;0.394;2023-02-13T04:05:49;8.17;;;7.40;;
17310;SDS011;8773;43.300;0.394;2023-02-13T04:08:20;8.23;;;7.53;;
17310;SDS011;8773;43.300;0.394;2023-02-13T04:10:51;8.33;;;7.53;;
17310;SDS011;8773;43.300;0.394;2023-02-13T04:13:25;8.80;;;8.00;;
17310;SDS011;8773;43.300;0.394;2023-02-13T04:16:00;8.00;;;7.37;;
17310;SDS011;8773;43.300;0.394;2023-02-13T04:18:32;8.40;;;7.70;;
17310;SDS011;8773;43.300;0.394;2023-02-13T04:21:05;7.50;;;6.97;;
17310;SDS011;8773;43.300;0.394;2023-02-13T04:23:34;8.43;;;7.73;;
17310;SDS011;8773;43.300;0.394;2023-02-13T04:26:04;8.00;;;7.17;;
17310;SDS011;8773;43.300;0.394;2023-02-13T04:28:35;8.77;;;7.97;;
17310;SDS011;8773;43.300;0.394;2023-02-13T04:31:06;8.80;;;8.00;;
17310;SDS011;8773;43.300;0.394;2023-02-13T04:33:34;7.80;;;7.10;;
17310;SDS011;8773;43.300;0.394;2023-02-13T04:36:03;8.13;;;7.43;;
17310;SDS011;8773;43.300;0.394;2023-02-13T04:38:34;8.30;;;7.50;;
17310;SDS011;8773;43.300;0.394;2023-02-13T04:41:04;8.63;;;7.83;;
17310;SDS011;8773;43.300;0.394;2023-02-13T04:43:32;8.07;;;7.37;;
17310;SDS011;8773;43.300;0.394;2023-02-13T04:46:00;8.17;;;7.37;;
17310;SDS011;8773;43.300;0.394;2023-02-13T04:48:28;7.87;;;7.17;;
17310;SDS011;8773;43.300;0.394;2023-02-13T04:50:57;8.07;;;7.13;;
17310;SDS011;8773;43.300;0.394;2023-02-13T04:53:25;8.03;;;7.33;;
17310;SDS011;8773;43.300;0.394;2023-02-13T04:55:53;7.60;;;6.90;;
17310;SDS011;8773;43.300;0.394;2023-02-13T04:58:22;7.23;;;6.67;;
17310;SDS011;8773;43.300;0.394;2023-02-13T05:00:50;8.20;;;7.50;;
17310;SDS011;8773;43.300;0.394;2023-02-13T05:03:19;7.70;;;7.10;;
17310;SDS011;8773;43.300;0.394;2023-02-13T05:05:47;7.13;;;6.63;;
17310;SDS011;8773;43.300;0.394;2023-02-13T05:08:15;7.40;;;6.80;;
17310;SDS011;8773;43.300;0.394;2023-02-13T05:10:44;7.07;;;6.57;;
17310;SDS011;8773;43.300;0.394;2023-02-13T05:13:12;7.57;;;6.87;;
17310;SDS011;8773;43.300;0.394;2023-02-13T05:15:43;7.73;;;7.03;;
17310;SDS011;8773;43.300;0.394;2023-02-13T05:18:12;7.73;;;6.97;;
17310;SDS011;8773;43.300;0.394;2023-02-13T05:20:42;7.37;;;6.77;;
17310;SDS011;8773;43.300;0.394;2023-02-13T05:23:12;7.60;;;6.90;;
17310;SDS011;8773;43.300;0.394;2023-02-13T05:25:56;7.47;;;6.80;;
17310;SDS011;8773;43.300;0.394;2023-02-13T05:28:24;7.97;;;7.30;;
17310;SDS011;8773;43.300;0.394;2023-02-13T05:31:11;7.80;;;7.20;;
17310;SDS011;8773;43.300;0.394;2023-02-13T05:33:42;7.60;;;7.00;;
17310;SDS011;8773;43.300;0.394;2023-02-13T05:36:10;7.80;;;7.10;;
17310;SDS011;8773;43.300;0.394;2023-02-13T05:38:39;7.57;;;6.97;;
17310;SDS011;8773;43.300;0.394;2023-02-13T05:41:07;7.07;;;6.53;;
17310;SDS011;8773;43.300;0.394;2023-02-13T05:43:35;7.30;;;6.70;;
17310;SDS011;8773;43.300;0.394;2023-02-13T05:46:04;7.53;;;6.93;;
17310;SDS011;8773;43.300;0.394;2023-02-13T05:48:34;7.70;;;6.97;;
17310;SDS011;8773;43.300;0.394;2023-02-13T05:51:03;6.90;;;6.30;;
17310;SDS011;8773;43.300;0.394;2023-02-13T05:53:31;7.10;;;6.50;;
17310;SDS011;8773;43.300;0.394;2023-02-13T05:56:01;6.97;;;6.40;;
17310;SDS011;8773;43.300;0.394;2023-02-13T05:58:29;7.23;;;6.53;;
17310;SDS011;8773;43.300;0.394;2023-02-13T06:00:58;7.20;;;6.50;;
17310;SDS011;8773;43.300;0.394;2023-02-13T06:03:27;7.23;;;6.63;;
17310;SDS011;8773;43.300;0.394;2023-02-13T06:05:57;7.50;;;6.90;;
17310;SDS011;8773;43.300;0.394;2023-02-13T06:08:26;7.63;;;6.90;;
17310;SDS011;8773;43.300;0.394;2023-02-13T06:10:54;7.80;;;7.10;;
17310;SDS011;8773;43.300;0.394;2023-02-13T06:13:22;7.67;;;6.97;;
17310;SDS011;8773;43.300;0.394;2023-02-13T06:15:50;7.33;;;6.73;;
17310;SDS011;8773;43.300;0.394;2023-02-13T06:18:18;7.47;;;6.87;;
17310;SDS011;8773;43.300;0.394;2023-02-13T06:20:46;7.33;;;6.80;;
17310;SDS011;8773;43.300;0.394;2023-02-13T06:23:16;7.00;;;6.40;;
17310;SDS011;8773;43.300;0.394;2023-02-13T06:25:43;7.47;;;6.17;;
17310;SDS011;8773;43.300;0.394;2023-02-13T06:28:11;7.23;;;6.63;;
17310;SDS011;8773;43.300;0.394;2023-02-13T06:30:40;7.07;;;6.37;;
17310;SDS011;8773;43.300;0.394;2023-02-13T06:33:08;7.37;;;6.67;;
17310;SDS011;8773;43.300;0.394;2023-02-13T06:35:36;7.07;;;6.53;;
17310;SDS011;8773;43.300;0.394;2023-02-13T06:38:04;6.47;;;5.90;;
17310;SDS011;8773;43.300;0.394;2023-02-13T06:40:37;7.57;;;6.87;;
17310;SDS011;8773;43.300;0.394;2023-02-13T06:43:05;6.97;;;6.37;;
17310;SDS011;8773;43.300;0.394;2023-02-13T06:45:33;7.20;;;6.60;;
17310;SDS011;8773;43.300;0.394;2023-02-13T06:48:01;7.07;;;6.43;;
17310;SDS011;8773;43.300;0.394;2023-02-13T06:50:30;7.17;;;6.57;;
17310;SDS011;8773;43.300;0.394;2023-02-13T06:52:58;6.90;;;6.40;;
17310;SDS011;8773;43.300;0.394;2023-02-13T06:55:27;6.70;;;6.10;;
17310;SDS011;8773;43.300;0.394;2023-02-13T06:57:56;6.77;;;6.27;;
17310;SDS011;8773;43.300;0.394;2023-02-13T07:00:24;7.73;;;7.03;;
17310;SDS011;8773;43.300;0.394;2023-02-13T07:02:53;7.53;;;6.80;;
17310;SDS011;8773;43.300;0.394;2023-02-13T07:05:21;7.43;;;6.83;;
17310;SDS011;8773;43.300;0.394;2023-02-13T07:07:49;7.23;;;6.53;;
17310;SDS011;8773;43.300;0.394;2023-02-13T07:10:17;8.33;;;7.53;;
17310;SDS011;8773;43.300;0.394;2023-02-13T07:12:45;7.20;;;6.63;;
17310;SDS011;8773;43.300;0.394;2023-02-13T07:15:31;7.20;;;6.53;;
17310;SDS011;8773;43.300;0.394;2023-02-13T07:18:00;7.17;;;6.57;;
17310;SDS011;8773;43.300;0.394;2023-02-13T07:20:29;7.67;;;6.97;;
17310;SDS011;8773;43.300;0.394;2023-02-13T07:22:57;7.30;;;6.60;;
17310;SDS011;8773;43.300;0.394;2023-02-13T07:25:29;8.03;;;6.97;;
17310;SDS011;8773;43.300;0.394;2023-02-13T07:27:59;8.57;;;7.70;;
17310;SDS011;8773;43.300;0.394;2023-02-13T07:30:29;8.57;;;7.77;;
17310;SDS011;8773;43.300;0.394;2023-02-13T07:33:00;7.43;;;6.67;;
17310;SDS011;8773;43.300;0.394;2023-02-13T07:35:28;7.03;;;6.43;;
17310;SDS011;8773;43.300;0.394;2023-02-13T07:37:56;7.63;;;6.77;;
17310;SDS011;8773;43.300;0.394;2023-02-13T07:40:26;7.70;;;6.93;;
17310;SDS011;8773;43.300;0.394;2023-02-13T07:42:54;7.40;;;6.80;;
17310;SDS011;8773;43.300;0.394;2023-02-13T07:45:22;6.53;;;6.10;;
17310;SDS011;8773;43.300;0.394;2023-02-13T07:47:50;7.40;;;6.70;;
17310;SDS011;8773;43.300;0.394;2023-02-13T07:50:25;7.43;;;6.73;;
17310;SDS011;8773;43.300;0.394;2023-02-13T07:52:56;13.97;;;12.47;;
17310;SDS011;8773;43.300;0.394;2023-02-13T07:55:26;7.03;;;6.30;;
17310;SDS011;8773;43.300;0.394;2023-02-13T07:57:54;7.47;;;6.40;;
17310;SDS011;8773;43.300;0.394;2023-02-13T08:00:23;6.83;;;6.33;;
17310;SDS011;8773;43.300;0.394;2023-02-13T08:02:51;6.93;;;6.13;;
17310;SDS011;8773;43.300;0.394;2023-02-13T08:05:19;7.00;;;6.37;;
17310;SDS011;8773;43.300;0.394;2023-02-13T08:07:48;6.80;;;6.17;;
17310;SDS011;8773;43.300;0.394;2023-02-13T08:10:16;7.23;;;6.53;;
17310;SDS011;8773;43.300;0.394;2023-02-13T08:13:02;8.83;;;7.27;;
17310;SDS011;8773;43.300;0.394;2023-02-13T08:15:31;7.30;;;6.57;;
17310;SDS011;8773;43.300;0.394;2023-02-13T08:17:59;7.57;;;6.87;;
17310;SDS011;8773;43.300;0.394;2023-02-13T08:20:27;7.27;;;6.57;;
17310;SDS011;8773;43.300;0.394;2023-02-13T08:23:02;7.03;;;6.43;;
17310;SDS011;8773;43.300;0.394;2023-02-13T08:25:31;7.20;;;6.57;;
17310;SDS011;8773;43.300;0.394;2023-02-13T08:27:59;8.00;;;6.93;;
17310;SDS011;8773;43.300;0.394;2023-02-13T08:30:30;7.00;;;6.33;;
17310;SDS011;8773;43.300;0.394;2023-02-13T08:32:58;7.47;;;6.67;;
17310;SDS011;8773;43.300;0.394;2023-02-13T08:35:26;8.33;;;7.03;;
17310;SDS011;8773;43.300;0.394;2023-02-13T08:38:00;8.40;;;7.60;;
17310;SDS011;8773;43.300;0.394;2023-02-13T08:40:30;7.53;;;6.83;;
17310;SDS011;8773;43.300;0.394;2023-02-13T08:42:58;8.03;;;6.43;;
17310;SDS011;8773;43.300;0.394;2023-02-13T08:45:27;7.47;;;6.73;;
17310;SDS011;8773;43.300;0.394;2023-02-13T08:47:56;7.50;;;6.83;;
17310;SDS011;8773;43.300;0.394;2023-02-13T08:50:24;8.63;;;7.50;;
17310;SDS011;8773;43.300;0.394;2023-02-13T08:52:53;8.00;;;7.20;;
17310;SDS011;8773;43.300;0.394;2023-02-13T08:55:22;8.97;;;7.20;;
17310;SDS011;8773;43.300;0.394;2023-02-13T08:57:51;9.00;;;7.27;;
17310;SDS011;8773;43.300;0.394;2023-02-13T09:00:19;7.47;;;6.80;;
17310;SDS011;8773;43.300;0.394;2023-02-13T09:02:48;7.63;;;6.90;;
17310;SDS011;8773;43.300;0.394;2023-02-13T09:05:16;7.10;;;6.47;;
17310;SDS011;8773;43.300;0.394;2023-02-13T09:07:44;7.53;;;6.80;;
17310;SDS011;8773;43.300;0.394;2023-02-13T09:10:12;7.60;;;6.90;;
17310;SDS011;8773;43.300;0.394;2023-02-13T09:12:41;8.27;;;6.70;;
17310;SDS011;8773;43.300;0.394;2023-02-13T09:15:10;7.33;;;6.73;;
17310;SDS011;8773;43.300;0.394;2023-02-13T09:17:38;6.60;;;6.10;;
17310;SDS011;8773;43.300;0.394;2023-02-13T09:20:06;6.50;;;6.00;;
17310;SDS011;8773;43.300;0.394;2023-02-13T09:22:35;6.50;;;6.00;;
17310;SDS011;8773;43.300;0.394;2023-02-13T09:25:03;9.13;;;6.87;;
17310;SDS011;8773;43.300;0.394;2023-02-13T09:27:32;10.90;;;6.63;;
17310;SDS011;8773;43.300;0.394;2023-02-13T09:30:02;6.87;;;6.27;;
17310;SDS011;8773;43.300;0.394;2023-02-13T09:32:31;9.33;;;6.17;;
17310;SDS011;8773;43.300;0.394;2023-02-13T09:35:02;7.57;;;6.83;;
17310;SDS011;8773;43.300;0.394;2023-02-13T09:37:33;6.73;;;6.10;;
17310;SDS011;8773;43.300;0.394;2023-02-13T09:40:01;7.27;;;6.63;;
17310;SDS011;8773;43.300;0.394;2023-02-13T09:42:30;8.67;;;6.57;;
17310;SDS011;8773;43.300;0.394;2023-02-13T09:45:04;8.70;;;6.30;;
17310;SDS011;8773;43.300;0.394;2023-02-13T09:47:35;6.83;;;6.33;;
17310;SDS011;8773;43.300;0.394;2023-02-13T09:50:06;7.57;;;6.80;;
17310;SDS011;8773;43.300;0.394;2023-02-13T09:52:42;7.93;;;6.50;;
17310;SDS011;8773;43.300;0.394;2023-02-13T09:55:15;7.87;;;7.07;;
17310;SDS011;8773;43.300;0.394;2023-02-13T09:57:46;8.77;;;7.00;;
17310;SDS011;8773;43.300;0.394;2023-02-13T10:00:22;7.93;;;6.57;;
17310;SDS011;8773;43.300;0.394;2023-02-13T10:03:03;7.40;;;6.77;;
17310;SDS011;8773;43.300;0.394;2023-02-13T10:05:47;7.40;;;6.77;;
17310;SDS011;8773;43.300;0.394;2023-02-13T10:08:30;7.60;;;6.90;;
17310;SDS011;8773;43.300;0.394;2023-02-13T10:11:10;7.23;;;6.53;;
17310;SDS011;8773;43.300;0.394;2023-02-13T10:13:58;8.23;;;7.33;;
17310;SDS011;8773;43.300;0.394;2023-02-13T10:16:35;8.90;;;6.53;;
17310;SDS011;8773;43.300;0.394;2023-02-13T10:19:11;10.00;;;6.27;;
17310;SDS011;8773;43.300;0.394;2023-02-13T10:21:47;7.13;;;6.37;;
17310;SDS011;8773;43.300;0.394;2023-02-13T10:24:20;8.03;;;6.57;;
17310;SDS011;8773;43.300;0.394;2023-02-13T10:26:57;6.70;;;6.20;;
17310;SDS011;8773;43.300;0.394;2023-02-13T10:29:36;6.63;;;5.83;;
17310;SDS011;8773;43.300;0.394;2023-02-13T10:32:31;7.43;;;6.73;;
17310;SDS011;8773;43.300;0.394;2023-02-13T10:35:13;6.70;;;5.80;;
17310;SDS011;8773;43.300;0.394;2023-02-13T10:37:45;6.93;;;5.93;;
17310;SDS011;8773;43.300;0.394;2023-02-13T10:40:16;8.03;;;6.03;;
17310;SDS011;8773;43.300;0.394;2023-02-13T10:42:46;9.07;;;6.30;;
17310;SDS011;8773;43.300;0.394;2023-02-13T10:45:27;6.57;;;6.00;;
17310;SDS011;8773;43.300;0.394;2023-02-13T10:48:16;6.73;;;6.13;;
17310;SDS011;8773;43.300;0.394;2023-02-13T10:51:06;6.57;;;5.97;;
17310;SDS011;8773;43.300;0.394;2023-02-13T10:53:43;6.10;;;5.70;;
17310;SDS011;8773;43.300;0.394;2023-02-13T10:56:29;7.33;;;5.73;;
17310;SDS011;8773;43.300;0.394;2023-02-13T10:59:11;6.40;;;5.80;;
17310;SDS011;8773;43.300;0.394;2023-02-13T11:01:50;7.77;;;6.37;;
17310;SDS011;8773;43.300;0.394;2023-02-13T11:04:24;7.43;;;6.77;;
17310;SDS011;8773;43.300;0.394;2023-02-13T11:06:54;6.10;;;5.53;;
17310;SDS011;8773;43.300;0.394;2023-02-13T11:09:24;5.80;;;5.23;;
17310;SDS011;8773;43.300;0.394;2023-02-13T11:11:52;6.23;;;5.63;;
17310;SDS011;8773;43.300;0.394;2023-02-13T11:14:21;6.83;;;5.53;;
17310;SDS011;8773;43.300;0.394;2023-02-13T11:16:54;6.40;;;5.90;;
17310;SDS011;8773;43.300;0.394;2023-02-13T11:19:27;6.47;;;5.80;;
17310;SDS011;8773;43.300;0.394;2023-02-13T11:21:59;6.20;;;5.70;;
17310;SDS011;8773;43.300;0.394;2023-02-13T11:24:31;7.63;;;6.17;;
17310;SDS011;8773;43.300;0.394;2023-02-13T11:27:00;6.70;;;6.10;;
17310;SDS011;8773;43.300;0.394;2023-02-13T11:29:35;6.57;;;5.70;;
17310;SDS011;8773;43.300;0.394;2023-02-13T11:32:16;6.80;;;6.10;;
17310;SDS011;8773;43.300;0.394;2023-02-13T11:34:48;7.77;;;6.00;;
17310;SDS011;8773;43.300;0.394;2023-02-13T11:37:24;7.57;;;6.00;;
17310;SDS011;8773;43.300;0.394;2023-02-13T11:39:54;7.80;;;5.40;;
17310;SDS011;8773;43.300;0.394;2023-02-13T11:42:27;6.13;;;5.47;;
17310;SDS011;8773;43.300;0.394;2023-02-13T11:44:58;7.40;;;6.43;;
17310;SDS011;8773;43.300;0.394;2023-02-13T11:47:32;6.10;;;5.50;;
17310;SDS011;8773;43.300;0.394;2023-02-13T11:50:06;5.83;;;5.43;;
17310;SDS011;8773;43.300;0.394;2023-02-13T11:52:53;5.87;;;5.43;;
17310;SDS011;8773;43.300;0.394;2023-02-13T11:55:25;6.87;;;6.20;;
17310;SDS011;8773;43.300;0.394;2023-02-13T11:58:01;5.37;;;4.90;;
17310;SDS011;8773;43.300;0.394;2023-02-13T12:00:32;4.73;;;4.43;;
17310;SDS011;8773;43.300;0.394;2023-02-13T12:06:02;5.63;;;5.00;;
17310;SDS011;8773;43.300;0.394;2023-02-13T12:08:33;3.93;;;3.73;;
17310;SDS011;8773;43.300;0.394;2023-02-13T12:11:05;3.73;;;3.47;;
17310;SDS011;8773;43.300;0.394;2023-02-13T12:13:44;3.20;;;3.00;;
17310;SDS011;8773;43.300;0.394;2023-02-13T12:16:13;4.17;;;3.93;;
17310;SDS011;8773;43.300;0.394;2023-02-13T12:18:48;3.80;;;3.60;;
17310;SDS011;8773;43.300;0.394;2023-02-13T12:21:26;3.80;;;3.60;;
17310;SDS011;8773;43.300;0.394;2023-02-13T12:24:08;3.70;;;3.40;;
17310;SDS011;8773;43.300;0.394;2023-02-13T12:26:47;4.80;;;4.40;;
17310;SDS011;8773;43.300;0.394;2023-02-13T12:29:32;3.10;;;3.00;;
17310;SDS011;8773;43.300;0.394;2023-02-13T12:32:17;4.20;;;3.40;;
17310;SDS011;8773;43.300;0.394;2023-02-13T12:37:46;3.57;;;3.37;;
17310;SDS011;8773;43.300;0.394;2023-02-13T12:40:30;4.40;;;4.10;;
17310;SDS011;8773;43.300;0.394;2023-02-13T12:43:27;4.10;;;3.80;;
17310;SDS011;8773;43.300;0.394;2023-02-13T12:46:13;3.40;;;3.20;;
17310;SDS011;8773;43.300;0.394;2023-02-13T12:48:51;3.67;;;3.47;;
17310;SDS011;8773;43.300;0.394;2023-02-13T12:51:29;3.60;;;3.30;;
17310;SDS011;8773;43.300;0.394;2023-02-13T12:54:13;3.47;;;3.27;;
17310;SDS011;8773;43.300;0.394;2023-02-13T12:57:12;3.67;;;3.37;;
17310;SDS011;8773;43.300;0.394;2023-02-13T12:59:52;3.20;;;3.10;;
17310;SDS011;8773;43.300;0.394;2023-02-13T13:05:45;3.33;;;3.13;;
17310;SDS011;8773;43.300;0.394;2023-02-13T13:08:43;3.50;;;3.23;;
17310;SDS011;8773;43.300;0.394;2023-02-13T13:11:27;2.80;;;2.70;;
17310;SDS011;8773;43.300;0.394;2023-02-13T13:14:07;3.70;;;3.40;;
17310;SDS011;8773;43.300;0.394;2023-02-13T13:16:44;3.50;;;3.30;;
17310;SDS011;8773;43.300;0.394;2023-02-13T13:19:22;3.40;;;3.20;;
17310;SDS011;8773;43.300;0.394;2023-02-13T13:21:59;3.13;;;2.93;;
17310;SDS011;8773;43.300;0.394;2023-02-13T13:24:36;3.80;;;3.50;;
17310;SDS011;8773;43.300;0.394;2023-02-13T13:27:17;3.20;;;3.00;;
17310;SDS011;8773;43.300;0.394;2023-02-13T13:29:50;3.37;;;3.17;;
17310;SDS011;8773;43.300;0.394;2023-02-13T13:32:24;3.17;;;3.00;;
17310;SDS011;8773;43.300;0.394;2023-02-13T13:34:53;3.37;;;3.17;;
17310;SDS011;8773;43.300;0.394;2023-02-13T13:37:27;3.20;;;3.00;;
17310;SDS011;8773;43.300;0.394;2023-02-13T13:40:02;2.80;;;2.70;;
17310;SDS011;8773;43.300;0.394;2023-02-13T13:42:52;3.17;;;2.97;;
17310;SDS011;8773;43.300;0.394;2023-02-13T13:45:32;3.40;;;3.20;;
17310;SDS011;8773;43.300;0.394;2023-02-13T13:48:15;3.20;;;3.00;;
17310;SDS011;8773;43.300;0.394;2023-02-13T13:50:57;3.83;;;3.50;;
17310;SDS011;8773;43.300;0.394;2023-02-13T13:53:26;3.10;;;2.90;;
17310;SDS011;8773;43.300;0.394;2023-02-13T13:55:58;3.10;;;3.00;;
17310;SDS011;8773;43.300;0.394;2023-02-13T13:58:34;6.47;;;5.67;;
17310;SDS011;8773;43.300;0.394;2023-02-13T14:01:17;3.57;;;3.37;;
17310;SDS011;8773;43.300;0.394;2023-02-13T14:03:49;3.30;;;3.17;;
17310;SDS011;8773;43.300;0.394;2023-02-13T14:06:18;3.20;;;3.00;;
17310;SDS011;8773;43.300;0.394;2023-02-13T14:08:58;3.40;;;3.10;;
17310;SDS011;8773;43.300;0.394;2023-02-13T14:11:34;3.40;;;3.20;;
17310;SDS011;8773;43.300;0.394;2023-02-13T14:20:25;2.93;;;2.73;;
17310;SDS011;8773;43.300;0.394;2023-02-13T14:23:18;3.10;;;3.00;;
17310;SDS011;8773;43.300;0.394;2023-02-13T14:26:09;2.80;;;2.70;;
17310;SDS011;8773;43.300;0.394;2023-02-13T14:28:55;2.70;;;2.60;;
17310;SDS011;8773;43.300;0.394;2023-02-13T14:31:30;2.90;;;2.80;;
17310;SDS011;8773;43.300;0.394;2023-02-13T14:34:01;3.10;;;2.90;;
17310;SDS011;8773;43.300;0.394;2023-02-13T14:36:35;2.80;;;2.60;;
17310;SDS011;8773;43.300;0.394;2023-02-13T14:39:05;2.80;;;2.70;;
17310;SDS011;8773;43.300;0.394;2023-02-13T14:41:56;2.90;;;2.70;;
17310;SDS011;8773;43.300;0.394;2023-02-13T14:44:28;2.70;;;2.60;;
17310;SDS011;8773;43.300;0.394;2023-02-13T14:47:02;2.70;;;2.60;;
17310;SDS011;8773;43.300;0.394;2023-02-13T14:49:34;2.43;;;2.30;;
17310;SDS011;8773;43.300;0.394;2023-02-13T14:52:12;2.60;;;2.50;;
17310;SDS011;8773;43.300;0.394;2023-02-13T14:54:45;2.70;;;2.50;;
17310;SDS011;8773;43.300;0.394;2023-02-13T14:57:17;2.90;;;2.70;;
17310;SDS011;8773;43.300;0.394;2023-02-13T14:59:48;3.00;;;2.90;;
17310;SDS011;8773;43.300;0.394;2023-02-13T15:02:20;3.17;;;2.97;;
17310;SDS011;8773;43.300;0.394;2023-02-13T15:04:52;3.03;;;2.93;;
17310;SDS011;8773;43.300;0.394;2023-02-13T15:07:23;3.00;;;2.80;;
17310;SDS011;8773;43.300;0.394;2023-02-13T15:09:57;3.17;;;2.97;;
17310;SDS011;8773;43.300;0.394;2023-02-13T15:12:29;3.47;;;3.27;;
17310;SDS011;8773;43.300;0.394;2023-02-13T15:14:58;3.67;;;3.47;;
17310;SDS011;8773;43.300;0.394;2023-02-13T15:17:28;2.80;;;2.60;;
17310;SDS011;8773;43.300;0.394;2023-02-13T15:20:05;2.70;;;2.60;;
17310;SDS011;8773;43.300;0.394;2023-02-13T15:22:51;3.00;;;2.80;;
17310;SDS011;8773;43.300;0.394;2023-02-13T15:25:21;2.77;;;2.67;;
17310;SDS011;8773;43.300;0.394;2023-02-13T15:27:52;3.43;;;2.70;;
17310;SDS011;8773;43.300;0.394;2023-02-13T15:30:22;3.73;;;3.43;;
17310;SDS011;8773;43.300;0.394;2023-02-13T15:32:53;3.00;;;2.83;;
17310;SDS011;8773;43.300;0.394;2023-02-13T15:35:24;2.70;;;2.60;;
17310;SDS011;8773;43.300;0.394;2023-02-13T15:37:54;3.33;;;2.77;;
17310;SDS011;8773;43.300;0.394;2023-02-13T15:40:24;3.00;;;2.80;;
17310;SDS011;8773;43.300;0.394;2023-02-13T15:42:54;2.43;;;2.33;;
17310;SDS011;8773;43.300;0.394;2023-02-13T15:45:23;2.80;;;2.70;;
17310;SDS011;8773;43.300;0.394;2023-02-13T15:47:54;2.53;;;2.43;;
17310;SDS011;8773;43.300;0.394;2023-02-13T15:50:27;3.07;;;2.87;;
17310;SDS011;8773;43.300;0.394;2023-02-13T15:52:58;2.23;;;2.13;;
17310;SDS011;8773;43.300;0.394;2023-02-13T15:55:29;2.70;;;2.60;;